Time;durP1;ratioP1;P1;durP2;ratioP2;P2;SDS_P1;SDS_P2;PMS_P1;PMS_P2;Temp;Humidity;BMP_temperature;BMP_pressure;BME280_temperature;BME280_humidity;BME280_pressure;Samples;Min_cycle;Max_cycle;Signal;HPM_P1;HPM_P2
2023/11/13 00:00:18;;;;;;;5.80;4.50;;;;;;;4.63;82.58;98110.30;109083;1257;71386;-26
2023/11/13 00:02:46;;;;;;;6.00;4.30;;;;;;;4.90;82.03;98115.18;108979;1257;58870;-27
2023/11/13 00:05:15;;;;;;;7.90;4.70;;;;;;;5.23;80.03;98114.05;109007;1257;58903;-26
2023/11/13 00:07:43;;;;;;;7.70;4.80;;;;;;;5.31;79.26;98117.04;108981;1257;72269;-26
2023/11/13 00:10:11;;;;;;;8.90;5.00;;;;;;;5.19;79.66;98114.84;109080;1257;74297;-26
2023/11/13 00:12:39;;;;;;;7.80;4.50;;;;;;;4.93;80.91;98119.46;109118;1257;72507;-26
2023/11/13 00:15:07;;;;;;;8.70;4.80;;;;;;;4.83;81.38;98126.39;108944;1257;58860;-26
2023/11/13 00:17:35;;;;;;;6.70;4.50;;;;;;;4.64;82.54;98128.62;108930;1257;60024;-26
2023/11/13 00:20:05;;;;;;;7.50;4.30;;;;;;;5.01;81.42;98125.96;109053;1258;73043;-26
2023/11/13 00:22:33;;;;;;;6.20;4.60;;;;;;;5.29;79.97;98127.83;109082;1257;73182;-26
2023/11/13 00:25:00;;;;;;;6.40;3.50;;;;;;;5.16;80.21;98129.13;109076;1258;71453;-26
2023/11/13 00:27:28;;;;;;;9.20;5.80;;;;;;;4.99;80.77;98129.67;109086;1257;58816;-27
2023/11/13 00:29:55;;;;;;;7.50;5.40;;;;;;;4.80;82.07;98128.46;109036;1258;59898;-26
2023/11/13 00:32:23;;;;;;;7.80;5.10;;;;;;;4.62;83.10;98127.72;108990;1259;72604;-26
2023/11/13 00:34:51;;;;;;;7.90;4.10;;;;;;;4.89;82.76;98129.02;109025;1259;73233;-26
2023/11/13 00:37:18;;;;;;;8.30;4.70;;;;;;;5.20;80.87;98136.24;108951;1258;72726;-26
2023/11/13 00:39:46;;;;;;;8.60;5.60;;;;;;;5.21;80.55;98135.30;109022;1259;58851;-26
2023/11/13 00:42:15;;;;;;;8.20;4.60;;;;;;;5.10;80.96;98139.36;109039;1259;58821;-26
2023/11/13 00:44:43;;;;;;;7.80;5.60;;;;;;;4.90;82.07;98136.17;109022;1258;73048;-26
2023/11/13 00:47:11;;;;;;;7.20;4.80;;;;;;;4.79;82.56;98143.35;109023;1259;73028;-26
2023/11/13 00:49:39;;;;;;;6.90;4.40;;;;;;;4.76;83.12;98152.63;108982;1258;71407;-26
2023/11/13 00:52:06;;;;;;;6.40;4.50;;;;;;;5.19;81.58;98155.80;108950;1259;60093;-26
2023/11/13 00:54:34;;;;;;;8.30;4.30;;;;;;;5.41;80.29;98156.08;108985;1260;60006;-27
2023/11/13 00:57:02;;;;;;;6.80;4.90;;;;;;;5.28;80.47;98153.94;108964;1260;71801;-26
2023/11/13 00:59:29;;;;;;;9.00;5.40;;;;;;;5.09;81.21;98166.13;109023;1260;73285;-26
2023/11/13 01:01:59;;;;;;;9.20;4.80;;;;;;;4.89;82.19;98167.27;108969;1259;71410;-26
2023/11/13 01:04:27;;;;;;;9.20;5.50;;;;;;;4.79;82.48;98166.52;108926;1260;58845;-26
2023/11/13 01:06:57;;;;;;;6.20;4.20;;;;;;;4.70;83.49;98172.19;109030;1259;60026;-26
2023/11/13 01:09:25;;;;;;;7.70;3.40;;;;;;;5.18;82.01;98173.02;109002;1259;73096;-26
2023/11/13 01:11:53;;;;;;;8.80;4.70;;;;;;;5.39;80.47;98173.61;109064;1258;73328;-26
2023/11/13 01:14:20;;;;;;;7.50;4.30;;;;;;;5.39;80.56;98179.12;108930;1260;72687;-26
2023/11/13 01:16:48;;;;;;;10.10;6.50;;;;;;;5.17;81.14;98179.15;109008;1259;60150;-26
2023/11/13 01:19:16;;;;;;;6.60;4.40;;;;;;;4.99;81.75;98181.79;109037;1259;60081;-26
2023/11/13 01:21:44;;;;;;;8.40;5.40;;;;;;;4.83;82.78;98175.21;108999;1259;71764;-27
2023/11/13 01:24:12;;;;;;;5.40;3.80;;;;;;;4.83;83.27;98178.50;109036;1259;74333;-26
2023/11/13 01:26:39;;;;;;;9.00;5.00;;;;;;;5.30;81.75;98174.26;109054;1259;72709;-26
2023/11/13 01:29:07;;;;;;;6.70;3.60;;;;;;;5.55;80.31;98186.58;108984;1259;58845;-26
2023/11/13 01:31:35;;;;;;;6.50;4.40;;;;;;;5.47;80.23;98184.35;109002;1260;60078;-26
2023/11/13 01:34:02;;;;;;;6.80;4.20;;;;;;;5.25;80.91;98185.81;108954;1260;73961;-26
2023/11/13 01:36:30;;;;;;;7.40;4.80;;;;;;;5.03;81.84;98185.98;108935;1260;74560;-26
2023/11/13 01:38:57;;;;;;;7.40;4.80;;;;;;;4.84;82.98;98187.85;108946;1260;72676;-26
2023/11/13 01:41:25;;;;;;;6.10;3.50;;;;;;;4.72;83.80;98190.08;108946;1260;59609;-26
2023/11/13 01:43:53;;;;;;;5.50;3.60;;;;;;;5.10;82.88;98188.41;108970;1260;58815;-26
2023/11/13 01:46:21;;;;;;;8.10;4.50;;;;;;;5.40;81.01;98186.56;108952;1260;73061;-26
2023/11/13 01:48:53;;;;;;;7.30;4.20;;;;;;;5.33;81.02;98194.34;108900;1262;73039;-27
2023/11/13 01:51:20;;;;;;;8.60;5.00;;;;;;;5.21;81.50;98192.14;108950;1260;72703;-26
2023/11/13 01:53:48;;;;;;;6.10;4.50;;;;;;;5.00;82.33;98190.33;108956;1260;58752;-26
2023/11/13 01:56:15;;;;;;;7.70;5.10;;;;;;;4.84;83.04;98194.03;108928;1260;59998;-26
2023/11/13 01:58:43;;;;;;;9.20;4.20;;;;;;;4.72;83.95;98201.12;108916;1259;72716;-26
2023/11/13 02:01:11;;;;;;;4.40;3.70;;;;;;;5.19;82.58;98198.64;108947;1259;74492;-26
2023/11/13 02:03:42;;;;;;;8.30;3.80;;;;;;;5.51;80.75;98204.05;109138;1257;72668;-26
2023/11/13 02:06:10;;;;;;;6.00;4.40;;;;;;;5.47;80.45;98205.34;109100;1256;60250;-26
2023/11/13 02:08:38;;;;;;;5.10;4.00;;;;;;;5.31;80.80;98211.02;109126;1257;58734;-26
2023/11/13 02:11:06;;;;;;;7.30;4.20;;;;;;;5.06;81.77;98209.72;109103;1256;73805;-26
2023/11/13 02:13:34;;;;;;;8.30;4.90;;;;;;;4.93;82.31;98212.88;109172;1256;74268;-26
2023/11/13 02:16:02;;;;;;;4.90;3.50;;;;;;;4.85;83.46;98217.89;109131;1257;72777;-26
2023/11/13 02:18:35;;;;;;;4.80;3.10;;;;;;;5.33;82.20;98224.25;109115;1255;58870;-27
2023/11/13 02:21:03;;;;;;;6.20;4.10;;;;;;;5.63;80.45;98223.63;109133;1255;58722;-26
2023/11/13 02:23:31;;;;;;;6.40;4.40;;;;;;;5.61;80.10;98229.13;109088;1255;73821;-27
2023/11/13 02:25:58;;;;;;;6.00;4.00;;;;;;;5.44;80.62;98230.92;109352;1256;74392;-26
2023/11/13 02:28:26;;;;;;;6.40;4.70;;;;;;;5.29;81.21;98233.01;109120;1255;71364;-27
2023/11/13 02:30:54;;;;;;;5.10;3.00;;;;;;;5.13;81.55;98236.20;109133;1256;58897;-26
2023/11/13 02:33:22;;;;;;;5.90;4.00;;;;;;;5.07;82.67;98236.96;109315;1256;58860;-26
2023/11/13 02:35:49;;;;;;;7.10;4.00;;;;;;;5.63;81.09;98236.77;109164;1256;73860;-26
2023/11/13 02:38:18;;;;;;;4.80;3.20;;;;;;;5.85;79.74;98239.45;109147;1255;74602;-26
2023/11/13 02:40:46;;;;;;;7.00;4.10;;;;;;;5.83;79.37;98241.29;109150;1256;71478;-26
2023/11/13 02:43:13;;;;;;;5.70;4.00;;;;;;;5.70;79.71;98242.42;109258;1256;60032;-26
2023/11/13 02:45:41;;;;;;;6.10;4.20;;;;;;;5.48;80.63;98245.72;109084;1255;59982;-27
2023/11/13 02:48:09;;;;;;;6.10;3.90;;;;;;;5.30;81.41;98244.81;109112;1257;72622;-26
2023/11/13 02:50:36;;;;;;;7.30;3.40;;;;;;;5.19;82.18;98244.41;109169;1257;74318;-26
2023/11/13 02:53:04;;;;;;;5.10;3.20;;;;;;;5.67;80.95;98254.03;109127;1256;72626;-26
2023/11/13 02:55:32;;;;;;;6.50;3.70;;;;;;;5.97;79.38;98247.50;109107;1256;60051;-27
2023/11/13 02:57:59;;;;;;;8.20;3.40;;;;;;;6.06;78.69;98254.77;109128;1256;60094;-26
2023/11/13 03:00:27;;;;;;;4.50;2.90;;;;;;;5.96;78.75;98256.68;109087;1255;73846;-26
2023/11/13 03:02:55;;;;;;;5.40;3.60;;;;;;;5.72;79.59;98259.14;109146;1256;74335;-26
2023/11/13 03:05:22;;;;;;;6.00;4.40;;;;;;;5.56;80.05;98264.42;109095;1257;72690;-26
2023/11/13 03:07:50;;;;;;;4.00;2.70;;;;;;;5.41;80.93;98260.22;109122;1255;58818;-26
2023/11/13 03:10:18;;;;;;;3.70;3.00;;;;;;;5.73;80.67;98264.27;109109;1255;59990;-26
2023/11/13 03:12:46;;;;;;;4.10;2.60;;;;;;;6.19;78.49;98261.42;109110;1257;73922;-26
2023/11/13 03:15:13;;;;;;;4.20;3.40;;;;;;;6.19;77.92;98267.22;109309;1255;74351;-26
2023/11/13 03:17:41;;;;;;;4.50;3.30;;;;;;;6.10;78.04;98271.35;109142;1256;71556;-26
2023/11/13 03:20:10;;;;;;;5.70;4.00;;;;;;;5.91;78.64;98271.77;109079;1259;60053;-26
2023/11/13 03:22:38;;;;;;;6.00;3.80;;;;;;;5.70;79.62;98276.48;109140;1257;58790;-26
2023/11/13 03:25:05;;;;;;;5.10;3.40;;;;;;;5.56;80.01;98275.68;109118;1257;73852;-26
2023/11/13 03:27:33;;;;;;;5.20;3.10;;;;;;;5.51;80.93;98281.20;109136;1256;74313;-26
2023/11/13 03:30:01;;;;;;;4.30;3.40;;;;;;;6.06;79.53;98278.56;109110;1257;71802;-26
2023/11/13 03:32:29;;;;;;;7.00;4.30;;;;;;;6.25;78.29;98280.60;109072;1258;59578;-26
2023/11/13 03:34:57;;;;;;;5.30;3.60;;;;;;;6.18;78.23;98286.27;109121;1257;58752;-26
2023/11/13 03:37:25;;;;;;;5.10;4.30;;;;;;;5.96;78.92;98287.56;109030;1257;73919;-27
2023/11/13 03:39:53;;;;;;;5.70;4.70;;;;;;;5.80;79.44;98292.85;109031;1257;72451;-26
2023/11/13 03:42:21;;;;;;;6.40;4.20;;;;;;;5.66;80.29;98290.59;109119;1259;71505;-26
2023/11/13 03:44:49;;;;;;;6.90;3.90;;;;;;;5.52;81.04;98294.73;109024;1257;59495;-26
2023/11/13 03:47:17;;;;;;;6.80;4.00;;;;;;;5.93;80.55;98299.96;109091;1257;58752;-26
2023/11/13 03:49:46;;;;;;;5.10;3.90;;;;;;;6.34;78.63;98300.42;109018;1257;73861;-26
2023/11/13 03:52:17;;;;;;;8.40;4.80;;;;;;;6.33;78.01;98299.13;109098;1257;73049;-26
2023/11/13 03:54:45;;;;;;;7.50;5.10;;;;;;;6.17;78.51;98299.60;109016;1257;72962;-26
2023/11/13 03:57:13;;;;;;;7.60;5.50;;;;;;;5.98;79.03;98305.67;109008;1257;60091;-26
2023/11/13 03:59:41;;;;;;;7.30;4.80;;;;;;;5.75;80.14;98306.10;109084;1257;60010;-26
2023/11/13 04:02:09;;;;;;;5.30;4.00;;;;;;;5.54;80.89;98306.41;108971;1257;73815;-26
2023/11/13 04:04:37;;;;;;;7.30;4.40;;;;;;;5.76;81.27;98310.18;109093;1259;74323;-26
2023/11/13 04:07:05;;;;;;;7.00;4.20;;;;;;;6.17;79.36;98311.15;109096;1257;71847;-26
2023/11/13 04:09:34;;;;;;;5.90;4.70;;;;;;;6.23;78.97;98313.17;109064;1257;60053;-26
2023/11/13 04:12:03;;;;;;;8.30;5.00;;;;;;;6.12;79.11;98313.42;109116;1257;60139;-26
2023/11/13 04:14:30;;;;;;;7.80;5.00;;;;;;;5.89;79.79;98311.31;109096;1257;73846;-26
2023/11/13 04:16:58;;;;;;;7.20;5.10;;;;;;;5.70;80.82;98316.63;109015;1259;74281;-26
2023/11/13 04:19:28;;;;;;;6.70;5.30;;;;;;;5.54;81.40;98321.55;109026;1257;72657;-26
2023/11/13 04:21:55;;;;;;;6.60;4.50;;;;;;;5.54;82.13;98324.70;108978;1258;60044;-26
2023/11/13 04:24:23;;;;;;;8.50;4.90;;;;;;;6.05;80.43;98327.19;109078;1258;58720;-26
2023/11/13 04:26:51;;;;;;;7.30;4.50;;;;;;;6.32;79.18;98330.58;109037;1259;73013;-26
2023/11/13 04:29:19;;;;;;;6.50;4.90;;;;;;;6.23;78.83;98333.66;109032;1259;74547;-27
2023/11/13 04:31:49;;;;;;;7.40;5.40;;;;;;;6.08;79.42;98336.67;108981;1258;72310;-26
2023/11/13 04:34:19;;;;;;;7.90;5.20;;;;;;;5.88;80.04;98332.08;108885;1258;58866;-26
2023/11/13 04:36:50;;;;;;;8.30;6.10;;;;;;;5.69;80.83;98336.17;108868;1258;60271;-26
2023/11/13 04:39:23;;;;;;;8.60;5.00;;;;;;;5.56;81.76;98337.65;108969;1258;73883;-26
2023/11/13 04:41:53;;;;;;;8.50;5.20;;;;;;;6.07;80.29;98333.23;108910;1258;73036;-26
2023/11/13 04:44:24;;;;;;;6.90;5.10;;;;;;;6.35;78.67;98330.66;108900;1260;72677;-26
2023/11/13 04:46:53;;;;;;;7.60;5.00;;;;;;;6.30;78.48;98337.61;109002;1257;59149;-26
2023/11/13 04:49:23;;;;;;;9.90;6.20;;;;;;;6.09;79.08;98342.48;108969;1258;60471;-26
2023/11/13 04:51:52;;;;;;;7.50;5.60;;;;;;;5.84;80.11;98342.35;109054;1259;73826;-26
2023/11/13 04:54:21;;;;;;;9.20;5.40;;;;;;;5.69;80.56;98345.48;109033;1259;73153;-27
2023/11/13 04:56:54;;;;;;;6.80;4.70;;;;;;;5.55;81.46;98346.46;108978;1259;71768;-26
2023/11/13 04:59:25;;;;;;;6.70;4.80;;;;;;;5.98;80.60;98346.49;109007;1258;60047;-27
2023/11/13 05:01:56;;;;;;;13.80;5.80;;;;;;;6.41;79.15;98354.76;108973;1258;60013;-26
2023/11/13 05:04:27;;;;;;;7.00;5.10;;;;;;;6.36;78.59;98351.84;108984;1259;72860;-26
2023/11/13 05:06:57;;;;;;;8.80;5.70;;;;;;;6.15;79.12;98357.65;109058;1259;72279;-27
2023/11/13 05:09:28;;;;;;;11.00;7.40;;;;;;;5.94;79.70;98361.09;108955;1260;71609;-26
2023/11/13 05:11:58;;;;;;;11.50;7.30;;;;;;;5.70;80.74;98362.45;108999;1259;59050;-26
2023/11/13 05:14:28;;;;;;;7.90;5.60;;;;;;;5.48;82.16;98356.11;109009;1258;61169;-26
2023/11/13 05:16:58;;;;;;;6.90;5.50;;;;;;;5.88;81.26;98357.92;109112;1257;74874;-27
2023/11/13 05:19:29;;;;;;;8.10;5.60;;;;;;;6.20;79.63;98364.90;109080;1257;74356;-27
2023/11/13 05:21:59;;;;;;;10.60;6.30;;;;;;;6.11;79.26;98367.84;109095;1257;72773;-26
2023/11/13 05:24:29;;;;;;;6.90;5.50;;;;;;;5.82;79.86;98371.27;108956;1257;60051;-26
2023/11/13 05:26:59;;;;;;;9.50;6.60;;;;;;;5.59;80.98;98373.06;109094;1257;58736;-26
2023/11/13 05:29:30;;;;;;;12.70;6.90;;;;;;;5.32;81.65;98373.74;109090;1257;73831;-26
2023/11/13 05:39:35;;;;;;;8.30;5.50;;;;;;;5.78;79.20;98388.96;102623;1291;600243;-24
2023/11/13 05:49:42;;;;;;;6.90;5.40;;;;;;;5.05;82.56;98406.74;102615;1292;600201;-24
2023/11/13 05:52:10;;;;;;;8.40;6.00;;;;;;;5.58;80.90;98401.88;104842;1267;61088;-24
2023/11/13 05:54:38;;;;;;;6.70;4.00;;;;;;;5.84;79.27;98394.54;108729;1265;58741;-26
2023/11/13 05:57:05;;;;;;;8.20;6.60;;;;;;;5.76;79.24;98393.86;108741;1265;72213;-25
2023/11/13 05:59:33;;;;;;;8.20;6.00;;;;;;;5.56;79.96;98401.13;108756;1265;74390;-25
2023/11/13 06:02:01;;;;;;;6.80;5.30;;;;;;;5.42;80.67;98396.81;108579;1266;72630;-25
2023/11/13 06:04:29;;;;;;;8.60;5.80;;;;;;;5.24;81.42;98395.83;106185;1263;3412712;-25
2023/11/13 06:06:57;;;;;;;7.50;4.50;;;;;;;5.56;81.49;98400.68;108886;1263;58857;-25
2023/11/13 06:09:24;;;;;;;11.50;5.90;;;;;;;6.07;79.35;98400.81;108849;1263;72266;-25
2023/11/13 06:11:53;;;;;;;7.90;5.90;;;;;;;6.18;78.49;98403.81;108870;1263;73240;-25
2023/11/13 06:14:23;;;;;;;9.10;6.50;;;;;;;6.01;78.60;98399.16;108851;1263;72723;-25
2023/11/13 06:16:50;;;;;;;10.10;6.30;;;;;;;5.88;78.91;98398.90;108678;1266;60107;-25
2023/11/13 06:19:18;;;;;;;8.70;6.80;;;;;;;5.67;79.62;98404.70;108866;1263;58826;-25
2023/11/13 06:21:46;;;;;;;9.50;6.70;;;;;;;5.47;80.37;98411.42;108771;1263;73049;-25
2023/11/13 06:24:13;;;;;;;8.20;4.90;;;;;;;5.45;80.88;98408.95;108746;1263;73037;-25
2023/11/13 06:26:41;;;;;;;7.50;5.40;;;;;;;6.00;79.64;98412.66;108846;1263;71391;-25
2023/11/13 06:29:10;;;;;;;7.70;5.00;;;;;;;6.32;77.75;98414.02;108855;1263;58869;-25
2023/11/13 06:31:38;;;;;;;8.10;6.40;;;;;;;6.27;77.58;98412.67;108679;1263;58834;-25
2023/11/13 06:34:07;;;;;;;6.70;5.30;;;;;;;6.14;77.63;98410.69;108746;1263;73020;-25
2023/11/13 06:36:35;;;;;;;9.80;5.80;;;;;;;5.90;78.36;98419.76;108741;1263;73197;-25
2023/11/13 06:39:03;;;;;;;8.30;5.70;;;;;;;5.68;79.65;98421.48;108731;1263;72763;-25
2023/11/13 06:41:33;;;;;;;5.30;3.90;;;;;;;5.49;80.31;98426.65;108711;1264;59265;-25
2023/11/13 06:44:04;;;;;;;5.90;4.30;;;;;;;5.87;79.61;98427.05;108789;1263;58765;-26
2023/11/13 06:46:31;;;;;;;7.70;5.10;;;;;;;6.34;77.54;98425.44;108771;1264;73057;-25
2023/11/13 06:48:59;;;;;;;6.90;4.90;;;;;;;6.43;76.81;98432.52;108741;1263;74306;-25
2023/11/13 06:51:27;;;;;;;8.30;5.80;;;;;;;6.30;76.93;98437.55;108755;1263;72524;-25
2023/11/13 06:53:55;;;;;;;8.20;5.80;;;;;;;6.13;77.47;98441.60;108738;1264;60050;-25
2023/11/13 06:56:24;;;;;;;7.10;5.20;;;;;;;5.99;77.68;98446.34;108760;1263;60520;-25
2023/11/13 06:58:51;;;;;;;6.70;4.60;;;;;;;5.83;78.15;98444.90;108748;1263;71771;-25
2023/11/13 07:01:20;;;;;;;7.20;4.60;;;;;;;5.73;78.71;98447.86;108769;1264;73021;-25
2023/11/13 07:03:47;;;;;;;8.80;4.70;;;;;;;6.24;78.13;98447.35;108614;1264;72684;-25
2023/11/13 07:06:15;;;;;;;7.70;4.50;;;;;;;6.58;75.95;98441.95;108701;1265;58896;-25
2023/11/13 07:08:46;;;;;;;10.00;4.30;;;;;;;6.55;75.69;98441.24;108727;1264;60164;-25
2023/11/13 07:11:17;;;;;;;5.70;3.90;;;;;;;6.38;75.53;98445.60;108677;1264;73075;-25
2023/11/13 07:13:46;;;;;;;7.00;4.50;;;;;;;6.21;76.37;98451.19;108592;1264;74525;-26
2023/11/13 07:16:14;;;;;;;7.00;5.00;;;;;;;6.07;76.54;98446.85;108739;1264;71835;-25
2023/11/13 07:18:42;;;;;;;8.90;5.20;;;;;;;5.95;77.10;98449.91;108621;1264;58843;-25
2023/11/13 07:21:10;;;;;;;7.50;4.30;;;;;;;5.87;77.86;98457.91;108815;1263;58801;-25
2023/11/13 07:23:38;;;;;;;6.30;4.10;;;;;;;6.32;76.55;98454.16;108795;1263;73126;-25
2023/11/13 07:26:05;;;;;;;5.20;4.30;;;;;;;6.73;75.05;98454.94;108766;1264;74293;-25
2023/11/13 07:28:38;;;;;;;6.20;4.30;;;;;;;6.70;74.02;98449.34;109132;1257;71349;-25
2023/11/13 07:31:20;;;;;;;7.70;5.40;;;;;;;6.51;74.47;98448.98;108656;1266;58882;-25
2023/11/13 07:33:48;;;;;;;6.80;4.60;;;;;;;6.37;75.46;98452.39;108773;1263;58824;-25
2023/11/13 07:36:16;;;;;;;7.80;4.60;;;;;;;6.26;75.00;98447.38;108715;1262;73610;-25
2023/11/13 07:38:44;;;;;;;6.10;4.90;;;;;;;6.06;75.67;98448.64;108810;1263;74291;-26
2023/11/13 07:41:11;;;;;;;6.30;4.30;;;;;;;5.86;76.28;98455.00;108770;1263;72693;-25
2023/11/13 07:43:43;;;;;;;6.90;4.20;;;;;;;6.07;76.59;98460.08;108810;1262;60114;-25
2023/11/13 07:46:11;;;;;;;6.50;4.20;;;;;;;6.63;74.31;98453.98;108829;1263;62177;-25
2023/11/13 07:48:40;;;;;;;6.40;4.30;;;;;;;6.72;73.41;98457.77;108755;1262;73035;-25
2023/11/13 07:51:08;;;;;;;5.50;3.60;;;;;;;6.60;73.30;98456.47;108846;1262;73070;-25
2023/11/13 07:53:36;;;;;;;6.40;3.80;;;;;;;6.47;73.70;98460.46;108805;1262;70631;-25
2023/11/13 07:56:04;;;;;;;6.70;4.10;;;;;;;6.32;74.36;98459.33;108814;1262;58944;-25
2023/11/13 07:58:31;;;;;;;6.10;4.40;;;;;;;6.21;75.11;98463.57;108763;1261;60007;-25
2023/11/13 08:00:59;;;;;;;6.60;4.40;;;;;;;6.13;75.57;98460.05;108795;1263;73162;-25
2023/11/13 08:03:27;;;;;;;5.60;3.90;;;;;;;6.10;75.67;98455.89;109121;1257;74357;-25
2023/11/13 08:05:55;;;;;;;6.90;3.90;;;;;;;6.46;74.25;98442.98;109023;1257;71416;-25
2023/11/13 08:08:22;;;;;;;4.60;3.70;;;;;;;6.73;73.01;98453.91;109079;1257;58873;-25
2023/11/13 08:10:51;;;;;;;5.20;3.50;;;;;;;6.84;72.38;98453.14;109096;1257;58745;-25
2023/11/13 08:13:19;;;;;;;5.20;3.50;;;;;;;6.57;72.62;98446.66;109130;1257;71797;-25
2023/11/13 08:15:50;;;;;;;7.20;4.30;;;;;;;6.45;73.57;98450.46;109101;1257;74460;-25
2023/11/13 08:18:18;;;;;;;5.40;3.30;;;;;;;6.36;73.82;98452.17;109137;1257;72645;-25
2023/11/13 08:20:46;;;;;;;5.30;4.10;;;;;;;6.26;74.41;98453.08;109038;1257;59270;-25
2023/11/13 08:23:14;;;;;;;4.20;3.50;;;;;;;6.09;75.10;98455.83;109219;1257;59912;-25
2023/11/13 08:25:46;;;;;;;6.70;4.30;;;;;;;6.34;74.73;98455.27;109220;1257;73483;-25
2023/11/13 08:28:14;;;;;;;4.30;3.30;;;;;;;6.93;71.99;98461.06;109018;1257;74340;-25
2023/11/13 08:30:43;;;;;;;6.00;3.80;;;;;;;7.14;71.55;98461.71;109051;1257;72547;-25
2023/11/13 08:33:12;;;;;;;4.20;3.30;;;;;;;7.06;71.33;98450.20;108971;1260;60050;-25
2023/11/13 08:35:41;;;;;;;5.50;4.40;;;;;;;6.89;71.41;98451.34;109270;1254;60028;-25
2023/11/13 08:38:10;;;;;;;5.90;3.70;;;;;;;6.85;71.83;98449.59;109106;1254;73036;-25
2023/11/13 08:40:39;;;;;;;5.90;3.80;;;;;;;6.73;72.42;98452.88;109340;1254;73205;-25
2023/11/13 08:43:10;;;;;;;5.90;4.30;;;;;;;6.65;72.69;98454.02;109321;1254;74860;-25
2023/11/13 08:45:39;;;;;;;6.00;3.40;;;;;;;6.62;73.46;98459.07;109226;1254;60652;-25
2023/11/13 08:48:27;;;;;;;5.70;3.60;;;;;;;6.55;73.22;98456.14;109310;1254;59018;-25
2023/11/13 08:50:59;;;;;;;4.90;3.00;;;;;;;6.71;72.58;98449.43;109127;1254;73082;-25
2023/11/13 08:53:28;;;;;;;5.60;2.20;;;;;;;7.17;70.53;98457.02;109267;1254;72536;-25
2023/11/13 08:55:56;;;;;;;4.70;3.10;;;;;;;7.28;70.52;98455.86;109118;1254;71129;-25
2023/11/13 08:58:26;;;;;;;4.40;3.30;;;;;;;7.43;70.16;98458.48;109289;1254;59840;-25
2023/11/13 09:00:54;;;;;;;6.00;3.40;;;;;;;7.28;69.65;98457.03;109232;1254;61604;-25
2023/11/13 09:03:21;;;;;;;6.10;3.70;;;;;;;7.01;69.73;98459.62;109345;1254;73015;-25
2023/11/13 09:05:49;;;;;;;3.90;3.20;;;;;;;6.77;70.80;98459.19;109355;1254;72067;-25
2023/11/13 09:08:17;;;;;;;4.30;3.20;;;;;;;6.67;71.07;98456.92;109305;1254;72670;-25
2023/11/13 09:10:44;;;;;;;4.30;3.40;;;;;;;6.59;71.43;98453.77;109229;1257;59276;-25
2023/11/13 09:13:13;;;;;;;4.60;3.40;;;;;;;6.45;72.37;98463.58;109323;1254;59125;-25
2023/11/13 09:15:41;;;;;;;4.70;3.10;;;;;;;6.37;72.84;98464.30;109321;1254;73024;-25
2023/11/13 09:18:09;;;;;;;3.40;2.40;;;;;;;6.34;73.27;98466.80;109486;1254;74289;-25
2023/11/13 09:20:42;;;;;;;4.20;2.50;;;;;;;7.02;71.67;98465.24;109297;1254;72660;-25
2023/11/13 09:23:10;;;;;;;2.50;2.00;;;;;;;7.56;69.28;98462.69;109307;1259;60075;-26
2023/11/13 09:25:38;;;;;;;4.30;3.20;;;;;;;7.38;68.65;98455.60;109227;1254;58758;-25
2023/11/13 09:28:07;;;;;;;4.70;3.10;;;;;;;7.22;69.09;98456.80;109303;1254;72189;-25
2023/11/13 09:30:35;;;;;;;5.20;4.00;;;;;;;7.12;69.58;98460.37;109323;1255;76656;-25
2023/11/13 09:33:05;;;;;;;4.90;3.50;;;;;;;6.84;70.25;98454.65;109276;1254;74903;-25
2023/11/13 09:35:36;;;;;;;3.70;3.00;;;;;;;6.68;70.98;98457.21;109243;1255;60678;-26
2023/11/13 09:38:04;;;;;;;4.50;3.20;;;;;;;6.63;71.23;98455.22;109251;1256;62390;-25
2023/11/13 09:40:34;;;;;;;4.30;3.10;;;;;;;6.62;71.78;98454.08;109301;1256;71263;-25
2023/11/13 09:43:18;;;;;;;4.30;3.00;;;;;;;6.64;71.58;98453.59;109103;1256;73334;-25
2023/11/13 09:45:51;;;;;;;5.00;3.60;;;;;;;6.81;71.67;98456.30;109122;1257;72681;-25
2023/11/13 09:48:28;;;;;;;5.30;3.10;;;;;;;7.17;71.39;98456.98;109241;1256;59059;-25
2023/11/13 09:50:59;;;;;;;5.00;3.70;;;;;;;7.73;69.26;98459.80;109148;1255;58724;-25
2023/11/13 09:53:28;;;;;;;4.30;3.10;;;;;;;7.83;67.98;98462.63;109078;1256;74942;-25
2023/11/13 09:55:57;;;;;;;6.30;4.00;;;;;;;7.83;68.14;98458.67;109139;1262;74319;-25
2023/11/13 09:58:25;;;;;;;5.20;3.50;;;;;;;7.79;67.85;98460.84;109272;1256;74862;-26
2023/11/13 10:00:54;;;;;;;4.70;3.20;;;;;;;7.70;68.42;98454.81;109245;1256;60346;-25
2023/11/13 10:03:21;;;;;;;4.70;3.50;;;;;;;7.58;68.02;98455.23;109298;1255;62247;-25
2023/11/13 10:05:50;;;;;;;4.70;3.20;;;;;;;7.61;68.31;98455.40;109269;1255;73978;-25
2023/11/13 10:08:20;;;;;;;5.10;3.20;;;;;;;7.53;68.49;98455.63;109281;1255;74276;-25
2023/11/13 10:10:49;;;;;;;4.50;3.20;;;;;;;7.77;68.33;98454.95;109302;1256;71767;-26
2023/11/13 10:13:21;;;;;;;4.20;2.60;;;;;;;8.11;66.68;98452.45;109272;1256;61087;-25
2023/11/13 10:15:49;;;;;;;3.40;2.70;;;;;;;8.35;65.74;98457.43;109167;1255;60999;-25
2023/11/13 10:18:17;;;;;;;4.00;3.00;;;;;;;8.53;65.06;98449.83;109133;1255;74089;-25
2023/11/13 10:20:45;;;;;;;5.80;3.00;;;;;;;8.55;63.81;98441.86;109163;1254;73194;-26
2023/11/13 10:23:14;;;;;;;4.60;3.30;;;;;;;8.46;64.39;98452.05;109163;1255;74560;-28
2023/11/13 10:25:46;;;;;;;3.20;2.90;;;;;;;8.23;64.40;98458.04;109261;1255;61052;-25
2023/11/13 10:28:17;;;;;;;4.90;3.50;;;;;;;7.81;65.78;98455.00;109269;1254;62230;-25
2023/11/13 10:30:51;;;;;;;4.10;3.30;;;;;;;7.55;66.82;98459.58;109291;1255;73587;-25
2023/11/13 10:33:21;;;;;;;3.40;2.90;;;;;;;7.54;67.19;98459.88;109232;1257;75923;-25
2023/11/13 10:35:50;;;;;;;4.80;3.30;;;;;;;7.49;67.51;98460.11;109226;1256;74845;-26
2023/11/13 10:38:20;;;;;;;5.50;3.60;;;;;;;7.48;67.97;98462.61;109087;1256;59812;-25
2023/11/13 10:40:59;;;;;;;4.50;3.10;;;;;;;7.46;68.35;98455.34;109130;1256;60319;-25
2023/11/13 10:43:31;;;;;;;4.10;3.50;;;;;;;7.47;68.69;98458.70;109108;1256;72692;-25
2023/11/13 10:46:00;;;;;;;4.40;3.10;;;;;;;7.50;68.59;98453.44;109085;1263;73474;-25
2023/11/13 10:48:31;;;;;;;4.40;3.00;;;;;;;7.51;68.60;98455.25;109233;1257;71821;-25
2023/11/13 10:51:04;;;;;;;4.90;3.00;;;;;;;7.57;68.11;98453.38;109120;1256;61603;-25
2023/11/13 10:53:39;;;;;;;3.70;3.20;;;;;;;7.59;67.71;98448.27;109291;1256;61013;-26
2023/11/13 10:56:08;;;;;;;10.30;3.30;;;;;;;7.60;68.01;98449.23;109154;1257;75348;-25
2023/11/13 10:58:36;;;;;;;3.50;2.60;;;;;;;7.64;67.86;98446.88;109161;1256;76354;-25
2023/11/13 11:01:13;;;;;;;5.00;3.40;;;;;;;7.62;67.44;98447.13;109243;1256;71286;-26
2023/11/13 11:03:45;;;;;;;6.30;3.00;;;;;;;7.63;67.58;98444.88;109133;1256;61474;-25
2023/11/13 11:06:20;;;;;;;4.10;2.90;;;;;;;7.65;67.41;98446.61;109076;1256;58745;-25
2023/11/13 11:08:50;;;;;;;6.60;3.30;;;;;;;7.69;67.22;98444.89;109182;1255;75896;-25
2023/11/13 11:11:20;;;;;;;4.00;2.90;;;;;;;7.74;66.85;98439.30;109247;1255;76767;-26
2023/11/13 11:13:52;;;;;;;6.00;3.30;;;;;;;7.79;67.12;98438.59;109106;1260;71810;-25
2023/11/13 11:16:38;;;;;;;6.20;3.30;;;;;;;7.91;66.81;98437.59;109000;1257;58722;-25
2023/11/13 11:19:10;;;;;;;4.50;3.30;;;;;;;8.02;65.33;98427.36;109049;1265;61027;-25
2023/11/13 11:21:46;;;;;;;5.00;2.90;;;;;;;8.27;64.80;98426.08;109101;1256;72754;-27
2023/11/13 11:24:24;;;;;;;4.50;2.70;;;;;;;8.66;63.58;98427.75;109226;1256;74313;-25
2023/11/13 11:27:00;;;;;;;3.50;2.60;;;;;;;8.98;62.62;98431.16;109081;1257;74809;-25
2023/11/13 11:29:40;;;;;;;3.30;2.80;;;;;;;9.13;60.96;98423.88;109126;1256;58818;-25
2023/11/13 11:32:15;;;;;;;3.40;2.60;;;;;;;9.28;60.59;98421.19;109066;1255;61780;-26
2023/11/13 11:34:44;;;;;;;2.70;2.40;;;;;;;9.06;59.79;98406.64;109062;1257;75268;-26
2023/11/13 11:37:16;;;;;;;4.10;2.60;;;;;;;8.94;60.82;98422.48;109087;1257;75776;-25
2023/11/13 11:39:48;;;;;;;4.30;2.40;;;;;;;8.73;61.60;98423.55;109202;1256;73624;-25
2023/11/13 11:42:20;;;;;;;4.20;2.60;;;;;;;8.54;62.75;98426.50;108991;1257;59366;-25
2023/11/13 11:45:06;;;;;;;2.50;1.80;;;;;;;8.45;62.61;98418.92;109092;1257;60091;-26
2023/11/13 11:47:38;;;;;;;3.60;2.00;;;;;;;8.28;61.56;98424.98;109237;1255;76169;-26
2023/11/13 11:50:13;;;;;;;2.40;1.80;;;;;;;8.15;62.09;98428.45;109130;1257;76718;-25
2023/11/13 11:53:16;;;;;;;3.40;2.00;;;;;;;7.95;62.05;98413.80;102659;1293;600569;-24
2023/11/13 11:55:45;;;;;;;6.80;1.60;;;;;;;7.81;61.45;98425.95;105482;1263;61238;-26
2023/11/13 11:58:14;;;;;;;3.90;2.00;;;;;;;7.68;61.09;98434.27;105477;1262;61544;-27